Time;durP1;ratioP1;P1;durP2;ratioP2;P2;SDS_P1;SDS_P2;PMS_P1;PMS_P2;Temp;Humidity;BMP_temperature;BMP_pressure;BME280_temperature;BME280_humidity;BME280_pressure;Samples;Min_cycle;Max_cycle;Signal;HPM_P1;HPM_P2
2022/10/02 00:00:21;;;;;;;6.47;3.15;;;;;;;12.81;78.83;99688.03;2079806;28;20819;-70
2022/10/02 00:01:49;;;;;;;4.03;2.65;;;;;;;12.79;78.81;99684.84;2071145;28;20052;-70
2022/10/02 00:03:09;;;;;;;4.50;2.65;;;;;;;12.78;78.71;99688.66;2062809;28;20045;-70
2022/10/02 00:04:19;;;;;;;4.18;2.50;;;;;;;12.73;78.74;99689.59;2065145;28;20031;-70
2022/10/02 00:05:43;;;;;;;4.03;2.78;;;;;;;12.73;78.86;99689.59;2071286;28;20045;-70
2022/10/02 00:06:49;;;;;;;5.30;2.78;;;;;;;12.74;78.90;99690.41;2067086;28;20049;-70
2022/10/02 00:08:18;;;;;;;6.80;2.55;;;;;;;12.74;78.71;99691.19;2073210;28;20037;-70
2022/10/02 00:09:30;;;;;;;3.70;2.67;;;;;;;12.76;79.06;99691.66;2080184;28;20128;-70
2022/10/02 00:10:47;;;;;;;5.57;2.45;;;;;;;12.76;78.93;99688.97;2079818;28;20057;-70
2022/10/02 00:11:54;;;;;;;4.30;2.53;;;;;;;12.76;78.98;99688.97;2071893;28;20049;-70
2022/10/02 00:13:01;;;;;;;5.55;2.35;;;;;;;12.75;78.94;99690.06;2074019;28;20112;-69
2022/10/02 00:14:10;;;;;;;;;;;;;;;12.74;78.92;99701.19;2086781;28;20515;-70
2022/10/02 00:15:27;;;;;;;3.22;2.15;;;;;;;12.72;79.07;99692.59;2080529;28;19917;-70
2022/10/02 00:16:38;;;;;;;4.13;2.60;;;;;;;12.71;78.98;99702.59;2072016;28;20448;-70
2022/10/02 00:17:51;;;;;;;7.13;2.50;;;;;;;12.70;78.98;99700.22;2068324;28;20038;-70
2022/10/02 00:18:59;;;;;;;6.50;2.92;;;;;;;12.72;78.93;99696.09;2074955;28;20052;-71
2022/10/02 00:20:11;;;;;;;5.47;2.13;;;;;;;12.71;78.98;99694.50;2079660;28;20050;-70
2022/10/02 00:21:44;;;;;;;4.35;2.28;;;;;;;12.72;79.10;99693.41;2078281;28;20033;-70
2022/10/02 00:22:55;;;;;;;4.85;2.10;;;;;;;12.66;79.22;99693.84;2080051;28;20040;-70
2022/10/02 00:24:02;;;;;;;5.88;2.63;;;;;;;12.69;79.31;99699.41;2071951;28;20030;-68
2022/10/02 00:25:36;;;;;;;4.10;2.10;;;;;;;12.72;79.25;99692.59;2058632;28;20058;-72
2022/10/02 00:27:14;;;;;;;4.45;2.15;;;;;;;12.73;79.28;99694.19;2084634;28;20064;-71
2022/10/02 00:28:54;;;;;;;5.50;2.47;;;;;;;12.74;79.23;99690.41;2073102;28;20056;-69
2022/10/02 00:30:00;;;;;;;;;;;;;;;12.74;79.23;99693.88;2063770;28;20057;-70
2022/10/02 00:31:20;;;;;;;6.95;2.30;;;;;;;12.77;79.16;99700.56;2063651;28;19913;-70
2022/10/02 00:32:53;;;;;;;4.47;2.20;;;;;;;12.78;79.12;99704.06;2061177;28;20061;-69
2022/10/02 00:34:29;;;;;;;3.10;2.03;;;;;;;12.75;79.53;99703.56;2067952;28;20046;-69
2022/10/02 00:35:39;;;;;;;4.40;2.17;;;;;;;12.74;79.60;99696.59;2052596;28;20553;-69
2022/10/02 00:37:05;;;;;;;2.47;1.92;;;;;;;12.76;79.59;99698.97;2041274;28;20047;-70
2022/10/02 00:38:48;;;;;;;3.30;2.05;;;;;;;12.78;79.70;99699.44;2071759;28;20096;-69
2022/10/02 00:40:39;;;;;;;3.53;1.80;;;;;;;12.82;79.61;99703.09;2083684;28;20029;-69
2022/10/02 00:41:43;;;;;;;3.47;2.08;;;;;;;12.80;79.72;99699.13;2086461;28;20044;-69
2022/10/02 00:43:03;;;;;;;5.13;2.00;;;;;;;12.83;79.89;99698.50;2079388;28;20053;-69
2022/10/02 00:44:35;;;;;;;3.75;1.95;;;;;;;12.85;79.77;99697.06;2082610;28;20029;-69
2022/10/02 00:46:10;;;;;;;4.80;1.88;;;;;;;12.87;79.52;99699.47;2087252;28;20055;-70
2022/10/02 00:47:32;;;;;;;4.68;2.00;;;;;;;12.86;79.62;99697.88;2088142;28;20044;-69
2022/10/02 00:48:56;;;;;;;2.50;1.70;;;;;;;12.85;79.72;99696.28;2082379;28;20048;-69
2022/10/02 00:49:57;;;;;;;5.43;2.10;;;;;;;12.87;79.82;99702.16;2074663;28;20042;-69
2022/10/02 00:51:14;;;;;;;5.97;1.98;;;;;;;12.87;79.52;99700.25;2079085;28;20045;-69
2022/10/02 00:52:34;;;;;;;3.65;2.00;;;;;;;12.87;79.83;99696.78;2079835;28;20048;-69
2022/10/02 00:53:58;;;;;;;2.67;1.80;;;;;;;12.87;79.88;99692.16;2082550;28;20412;-68
2022/10/02 00:55:12;;;;;;;5.53;1.85;;;;;;;12.86;79.83;99697.88;2071779;28;20261;-69
2022/10/02 00:56:16;;;;;;;5.65;1.92;;;;;;;12.87;79.69;99699.47;2067832;28;20227;-69
2022/10/02 00:57:30;;;;;;;3.45;1.77;;;;;;;12.85;79.62;99688.97;2079304;28;20081;-69
2022/10/02 00:58:52;;;;;;;3.60;1.88;;;;;;;12.86;79.71;99692.47;2080630;28;20045;-69
2022/10/02 01:00:02;;;;;;;2.63;2.10;;;;;;;12.86;79.72;99696.00;2080641;28;20357;-69
2022/10/02 01:01:21;;;;;;;3.55;1.80;;;;;;;12.86;79.43;99697.88;2071738;28;20046;-69
2022/10/02 01:02:35;;;;;;;4.25;1.88;;;;;;;12.83;79.77;99693.09;2068346;28;20085;-69
2022/10/02 01:03:43;;;;;;;6.65;1.80;;;;;;;12.80;79.81;99694.53;2072588;28;20046;-70
2022/10/02 01:04:50;;;;;;;5.65;1.90;;;;;;;12.81;79.91;99700.72;2079431;28;20516;-69
2022/10/02 01:06:00;;;;;;;5.10;1.70;;;;;;;12.78;79.74;99699.44;2080119;28;20052;-71
2022/10/02 01:07:06;;;;;;;2.60;1.70;;;;;;;12.78;79.88;99693.25;2071415;28;20034;-70
2022/10/02 01:08:15;;;;;;;3.78;1.70;;;;;;;12.76;79.75;99697.03;2072123;28;20521;-69
2022/10/02 01:09:20;;;;;;;4.40;1.40;;;;;;;12.75;79.95;99700.88;2080473;28;20068;-71
2022/10/02 01:10:28;;;;;;;3.97;2.00;;;;;;;12.70;80.13;99695.63;2079659;28;20057;-70
2022/10/02 01:11:31;;;;;;;3.88;1.50;;;;;;;12.69;80.21;99699.41;2069331;28;20038;-72
2022/10/02 01:12:36;;;;;;;3.35;1.40;;;;;;;12.70;80.20;99690.25;2071671;28;20045;-70
2022/10/02 01:13:42;;;;;;;4.72;1.65;;;;;;;12.74;80.08;99691.19;2063973;28;20046;-70
2022/10/02 01:14:49;;;;;;;2.20;1.60;;;;;;;12.72;80.33;99698.78;2064486;28;20552;-69
2022/10/02 01:15:55;;;;;;;1.92;1.48;;;;;;;12.69;80.42;99698.63;2071441;28;20063;-69
2022/10/02 01:17:01;;;;;;;2.72;1.50;;;;;;;12.65;80.49;99701.16;2071292;28;20401;-70
2022/10/02 01:18:03;;;;;;;3.63;1.70;;;;;;;12.61;80.84;99696.69;2063424;28;20041;-72
2022/10/02 01:19:16;;;;;;;2.70;1.67;;;;;;;12.63;80.64;99695.28;2052757;28;20047;-71
2022/10/02 01:20:28;;;;;;;4.28;1.60;;;;;;;12.66;80.68;99697.34;2058895;28;20054;-71
2022/10/02 01:21:42;;;;;;;5.60;1.60;;;;;;;12.67;80.55;99698.97;2072396;28;20528;-72
2022/10/02 01:22:53;;;;;;;3.80;1.50;;;;;;;12.69;80.55;99696.72;2076928;28;20053;-71
2022/10/02 01:24:24;;;;;;;3.10;1.50;;;;;;;12.67;80.86;99701.66;2072270;28;20050;-72
2022/10/02 01:25:28;;;;;;;4.00;1.60;;;;;;;12.68;80.85;99702.44;2080067;28;20049;-71
2022/10/02 01:26:33;;;;;;;3.00;1.50;;;;;;;12.71;80.82;99697.22;2071646;28;20093;-70
2022/10/02 01:27:36;;;;;;;5.78;1.45;;;;;;;12.72;80.54;99704.19;2071839;28;20053;-70
2022/10/02 01:28:38;;;;;;;2.83;1.20;;;;;;;12.75;80.52;99702.78;2079724;28;20062;-69
2022/10/02 01:29:48;;;;;;;5.43;1.77;;;;;;;12.75;80.54;99706.25;2072032;28;20655;-70
2022/10/02 01:31:06;;;;;;;7.18;1.63;;;;;;;12.76;80.53;99712.44;2072865;28;20052;-69
2022/10/02 01:32:11;;;;;;;7.28;1.80;;;;;;;12.74;80.55;99709.28;2073592;28;20065;-69
2022/10/02 01:33:15;;;;;;;5.30;1.70;;;;;;;12.65;80.81;99708.47;2071669;28;20053;-70
2022/10/02 01:34:22;;;;;;;3.28;1.50;;;;;;;12.66;80.87;99710.84;2079413;28;20045;-69
2022/10/02 01:35:31;;;;;;;8.63;1.70;;;;;;;12.68;80.87;99705.13;2067799;28;20058;-69
2022/10/02 01:36:42;;;;;;;3.22;1.40;;;;;;;12.70;80.63;99711.81;2079155;28;20049;-69
2022/10/02 01:37:46;;;;;;;3.03;1.33;;;;;;;12.74;80.69;99717.38;2080250;28;20048;-69
2022/10/02 01:38:51;;;;;;;4.60;1.55;;;;;;;12.75;80.62;99714.34;2070688;28;20044;-70
2022/10/02 01:39:58;;;;;;;2.80;1.45;;;;;;;12.73;80.44;99705.78;2079788;28;20032;-70
2022/10/02 01:41:02;;;;;;;5.60;1.80;;;;;;;12.75;80.41;99714.34;2088446;28;20033;-70
2022/10/02 01:42:08;;;;;;;3.15;1.70;;;;;;;12.73;80.48;99715.75;2087745;28;20057;-70
2022/10/02 01:43:21;;;;;;;2.40;1.40;;;;;;;12.68;80.52;99699.75;2087251;28;20052;-70
2022/10/02 01:44:24;;;;;;;2.65;1.50;;;;;;;12.67;80.40;99709.75;2087846;28;20044;-70
2022/10/02 01:45:46;;;;;;;4.32;1.52;;;;;;;12.61;80.62;99708.28;2080022;28;20044;-71
2022/10/02 01:47:25;;;;;;;2.13;1.30;;;;;;;12.61;80.63;99708.28;2073693;28;20536;-70
2022/10/02 01:48:56;;;;;;;8.10;1.55;;;;;;;12.61;80.63;99715.56;2082260;28;20496;-69
2022/10/02 01:50:30;;;;;;;5.43;1.50;;;;;;;12.56;80.52;99715.72;2082627;28;20048;-69
2022/10/02 01:52:08;;;;;;;3.05;1.58;;;;;;;12.53;80.82;99714.44;2083921;28;20155;-70
2022/10/02 01:53:46;;;;;;;4.22;1.42;;;;;;;12.50;80.95;99715.06;2092788;28;20040;-69
2022/10/02 01:55:07;;;;;;;3.83;1.45;;;;;;;12.48;80.94;99717.25;2083155;28;20041;-69
2022/10/02 01:56:29;;;;;;;4.03;1.50;;;;;;;12.46;80.91;99714.09;2079871;28;20520;-71
2022/10/02 01:57:34;;;;;;;3.45;1.40;;;;;;;12.46;81.06;99716.81;2079511;28;20034;-70
2022/10/02 01:58:47;;;;;;;5.97;1.52;;;;;;;12.47;81.10;99718.38;2071586;28;20042;-70
2022/10/02 02:00:09;;;;;;;4.28;1.38;;;;;;;12.49;81.08;99708.88;2073058;28;20041;-69
2022/10/02 02:01:36;;;;;;;2.55;1.33;;;;;;;12.48;81.23;99706.47;2074738;28;20481;-70
2022/10/02 02:02:47;;;;;;;5.20;1.73;;;;;;;12.46;81.17;99709.50;2080635;28;20061;-70
2022/10/02 02:04:07;;;;;;;3.25;1.40;;;;;;;12.47;81.31;99718.38;2072218;28;20478;-70
2022/10/02 02:05:32;;;;;;;2.78;1.23;;;;;;;12.47;81.16;99708.38;2067660;28;20490;-70
2022/10/02 02:07:05;;;;;;;3.55;1.20;;;;;;;12.47;80.97;99713.00;2073460;28;20041;-71
2022/10/02 02:08:34;;;;;;;3.85;1.38;;;;;;;12.43;81.16;99710.13;2081260;28;20036;-71
2022/10/02 02:09:57;;;;;;;8.75;1.27;;;;;;;12.44;81.33;99719.00;2080636;28;20421;-71
2022/10/02 02:11:17;;;;;;;3.05;1.20;;;;;;;12.38;81.36;99726.44;2073049;28;20710;-71
2022/10/02 02:12:30;;;;;;;1.50;1.20;;;;;;;12.42;81.42;99721.22;2053052;28;20047;-71
2022/10/02 02:13:44;;;;;;;3.00;1.35;;;;;;;12.39;81.64;99719.94;2058491;28;20038;-71
2022/10/02 02:14:52;;;;;;;5.95;1.58;;;;;;;12.43;81.53;99722.81;2062429;28;20042;-72
2022/10/02 02:16:07;;;;;;;6.60;1.30;;;;;;;12.43;81.72;99726.31;2072953;28;20052;-72
2022/10/02 02:17:20;;;;;;;5.85;1.20;;;;;;;12.47;81.67;99726.47;2074626;28;20049;-71
2022/10/02 02:18:45;;;;;;;1.90;1.13;;;;;;;12.47;81.88;99729.16;2072900;28;20045;-71
2022/10/02 02:20:00;;;;;;;4.43;1.20;;;;;;;12.47;81.73;99727.25;2075458;28;20630;-71
2022/10/02 02:21:41;;;;;;;4.40;1.33;;;;;;;12.50;81.56;99734.72;2072751;28;20056;-71
2022/10/02 02:22:52;;;;;;;2.00;1.02;;;;;;;12.49;81.64;99726.97;2073492;28;20042;-71
2022/10/02 02:24:02;;;;;;;3.60;0.93;;;;;;;12.49;81.51;99733.16;2080692;28;20433;-71
2022/10/02 02:25:19;;;;;;;3.42;1.10;;;;;;;12.53;81.63;99738.72;2079255;28;20041;-71
2022/10/02 02:26:28;;;;;;;4.85;1.15;;;;;;;12.53;81.66;99726.03;2073595;28;20482;-70
2022/10/02 02:27:34;;;;;;;1.83;1.10;;;;;;;12.55;81.69;99733.81;2072153;28;20042;-71
2022/10/02 02:28:47;;;;;;;2.10;1.20;;;;;;;12.53;81.76;99727.94;2072225;28;20425;-72
2022/10/02 02:29:59;;;;;;;2.67;0.90;;;;;;;12.50;81.77;99729.34;2073370;28;20037;-71
2022/10/02 02:31:14;;;;;;;3.05;1.00;;;;;;;12.48;81.56;99730.75;2073393;28;20045;-71
2022/10/02 02:32:26;;;;;;;3.40;1.20;;;;;;;12.45;82.01;99736.75;2072920;28;20052;-70
2022/10/02 02:33:41;;;;;;;2.75;1.10;;;;;;;12.46;82.09;99733.78;2065961;28;20038;-70
2022/10/02 02:34:54;;;;;;;5.07;1.08;;;;;;;12.45;81.95;99726.78;2066546;28;20061;-70
2022/10/02 02:36:05;;;;;;;1.88;0.93;;;;;;;12.47;81.77;99724.56;2080944;28;20049;-69
2022/10/02 02:37:18;;;;;;;2.40;1.00;;;;;;;12.43;81.94;99726.31;2080953;28;20347;-70
2022/10/02 02:38:29;;;;;;;5.43;1.10;;;;;;;12.44;81.84;99729.78;2074211;28;20057;-70
2022/10/02 02:39:48;;;;;;;4.10;1.10;;;;;;;12.37;82.04;99729.44;2079164;28;20649;-69
2022/10/02 02:40:51;;;;;;;3.35;1.20;;;;;;;12.35;82.24;99726.25;2075076;28;20034;-72
2022/10/02 02:41:58;;;;;;;1.48;1.08;;;;;;;12.33;82.02;99729.28;2073289;28;20417;-71
2022/10/02 02:43:11;;;;;;;2.13;1.10;;;;;;;12.32;82.35;99727.66;2081764;28;20505;-71
2022/10/02 02:44:40;;;;;;;5.20;1.00;;;;;;;12.31;82.34;99726.09;2088607;28;20068;-70
2022/10/02 02:45:52;;;;;;;3.15;0.90;;;;;;;12.35;82.31;99734.34;2085775;28;20393;-70
2022/10/02 02:47:10;;;;;;;2.67;1.00;;;;;;;12.36;82.10;99725.16;2088084;28;20053;-71
2022/10/02 02:48:28;;;;;;;2.88;1.15;;;;;;;12.27;82.50;99725.91;2089284;28;20389;-71
2022/10/02 02:49:44;;;;;;;3.17;1.25;;;;;;;12.27;82.57;99734.00;2072775;28;20029;-70
2022/10/02 02:51:17;;;;;;;2.28;1.05;;;;;;;12.25;82.58;99733.50;2072977;28;20642;-70
2022/10/02 02:52:26;;;;;;;3.03;1.00;;;;;;;12.26;82.48;99732.41;2064085;28;20690;-70
2022/10/02 02:53:48;;;;;;;2.40;1.00;;;;;;;12.31;82.68;99742.25;2065799;28;20061;-70
2022/10/02 02:55:02;;;;;;;3.28;1.15;;;;;;;12.33;82.54;99740.06;2073272;28;20061;-70
2022/10/02 02:56:09;;;;;;;3.03;1.33;;;;;;;12.38;82.44;99747.19;2064539;28;20561;-70
2022/10/02 02:57:16;;;;;;;3.33;1.13;;;;;;;12.42;82.42;99740.06;2058372;28;20067;-71
2022/10/02 02:58:42;;;;;;;2.65;1.30;;;;;;;12.42;82.29;99743.59;2065543;28;20038;-70
2022/10/02 02:59:49;;;;;;;2.97;0.90;;;;;;;12.45;82.31;99745.66;2069303;28;20053;-71
2022/10/02 03:00:56;;;;;;;1.98;0.95;;;;;;;12.41;82.30;99743.88;2080616;28;20382;-71
2022/10/02 03:01:58;;;;;;;2.60;1.35;;;;;;;12.44;82.15;99741.38;2080617;28;20045;-70
2022/10/02 03:03:06;;;;;;;6.05;1.23;;;;;;;12.45;82.12;99742.16;2073410;28;20054;-70
2022/10/02 03:04:14;;;;;;;2.65;1.05;;;;;;;12.48;82.25;99746.94;2068604;28;20038;-70
2022/10/02 03:05:18;;;;;;;1.63;1.00;;;;;;;12.48;82.08;99742.34;2065438;28;20049;-70
2022/10/02 03:06:25;;;;;;;2.88;1.00;;;;;;;12.49;82.13;99746.63;2079714;28;20053;-69
2022/10/02 03:07:27;;;;;;;3.05;1.30;;;;;;;12.50;82.01;99744.72;2081075;28;20037;-70
2022/10/02 03:08:36;;;;;;;2.60;0.88;;;;;;;12.51;81.97;99751.69;2080596;28;20054;-69
2022/10/02 03:09:41;;;;;;;4.03;1.13;;;;;;;12.50;81.80;99756.31;2072459;28;20388;-70
2022/10/02 03:11:09;;;;;;;2.38;1.05;;;;;;;12.50;81.93;99744.72;2073390;28;20049;-70
2022/10/02 03:12:44;;;;;;;3.72;1.10;;;;;;;12.49;81.92;99749.31;2080732;28;20041;-70
2022/10/02 03:13:49;;;;;;;7.35;1.15;;;;;;;12.47;81.78;99750.75;2069005;28;20057;-70
2022/10/02 03:15:17;;;;;;;3.28;1.10;;;;;;;12.46;81.81;99746.47;2065656;28;20050;-70
2022/10/02 03:16:27;;;;;;;1.63;0.80;;;;;;;12.45;81.61;99748.38;2059802;28;20054;-70
2022/10/02 03:17:41;;;;;;;5.38;1.20;;;;;;;12.46;81.70;99754.56;2059343;28;20049;-70
2022/10/02 03:19:01;;;;;;;2.50;0.88;;;;;;;12.43;81.71;99758.66;2072573;28;20045;-70
2022/10/02 03:20:06;;;;;;;3.40;0.98;;;;;;;12.44;81.81;99751.34;2072422;28;20045;-70
2022/10/02 03:21:23;;;;;;;2.22;0.98;;;;;;;12.44;81.78;99762.13;2072504;28;20045;-70
2022/10/02 03:22:49;;;;;;;1.45;0.75;;;;;;;12.46;81.68;99754.56;2071727;28;20146;-70
2022/10/02 03:23:53;;;;;;;1.80;0.80;;;;;;;12.43;81.80;99752.47;2067877;28;20033;-70
2022/10/02 03:25:18;;;;;;;4.72;1.10;;;;;;;12.45;81.88;99761.84;2072434;28;20044;-70
2022/10/02 03:26:54;;;;;;;3.80;1.00;;;;;;;12.48;81.73;99752.31;2072990;28;20038;-70
2022/10/02 03:28:17;;;;;;;2.90;0.88;;;;;;;12.46;81.86;99749.94;2072916;28;20040;-70
2022/10/02 03:29:27;;;;;;;1.63;0.70;;;;;;;12.41;81.78;99757.38;2071446;28;20057;-70
2022/10/02 03:30:34;;;;;;;2.50;1.00;;;;;;;12.40;81.98;99755.78;2065734;28;20046;-71
2022/10/02 03:31:43;;;;;;;4.72;1.08;;;;;;;12.40;82.04;99753.88;2065000;28;20049;-70
2022/10/02 03:32:45;;;;;;;8.55;1.10;;;;;;;12.42;81.93;99753.56;2065293;28;20034;-69
2022/10/02 03:33:52;;;;;;;1.10;0.70;;;;;;;12.41;82.03;99750.06;2064130;28;20498;-69
2022/10/02 03:34:58;;;;;;;3.20;0.77;;;;;;;12.42;81.88;99743.59;2053333;28;20035;-69
2022/10/02 03:36:06;;;;;;;1.50;0.73;;;;;;;12.46;81.88;99751.84;2071958;28;20054;-70
2022/10/02 03:37:08;;;;;;;1.98;1.00;;;;;;;12.47;81.79;99756.13;2071977;28;20513;-70
2022/10/02 03:38:17;;;;;;;2.45;0.80;;;;;;;12.45;81.76;99747.53;2063525;28;20050;-71
2022/10/02 03:39:26;;;;;;;2.40;0.88;;;;;;;12.45;81.87;99747.53;2075362;28;20109;-71
2022/10/02 03:40:30;;;;;;;2.75;0.70;;;;;;;12.46;81.91;99749.16;2088615;28;20041;-71
2022/10/02 03:41:41;;;;;;;4.53;0.80;;;;;;;12.45;81.69;99753.75;2080512;28;20029;-71
2022/10/02 03:42:44;;;;;;;3.35;1.10;;;;;;;12.46;81.61;99751.84;2072836;28;20053;-71
2022/10/02 03:43:47;;;;;;;2.08;0.65;;;;;;;12.40;81.45;99755.78;2064584;28;20593;-71
2022/10/02 03:44:49;;;;;;;2.75;0.70;;;;;;;12.38;81.77;99753.38;2079554;28;20049;-71
2022/10/02 03:45:51;;;;;;;3.30;0.90;;;;;;;12.30;81.60;99756.84;2080029;28;20497;-71
2022/10/02 03:46:55;;;;;;;2.80;1.10;;;;;;;12.33;81.65;99750.84;2072464;28;20046;-71
2022/10/02 03:47:57;;;;;;;6.05;0.90;;;;;;;12.30;81.73;99759.53;2071970;28;20048;-71
2022/10/02 03:49:04;;;;;;;1.95;0.65;;;;;;;12.30;81.44;99756.84;2080378;28;20037;-71
2022/10/02 03:50:08;;;;;;;1.50;0.60;;;;;;;12.29;81.56;99760.63;2080128;28;20064;-71
2022/10/02 03:51:12;;;;;;;2.72;0.73;;;;;;;12.30;81.56;99756.84;2080223;28;20053;-71
2022/10/02 03:52:20;;;;;;;3.78;0.75;;;;;;;12.32;81.58;99761.91;2079913;28;20571;-71
2022/10/02 03:53:29;;;;;;;3.35;0.77;;;;;;;12.33;81.42;99761.63;2080341;28;20044;-71
2022/10/02 03:54:35;;;;;;;2.85;0.90;;;;;;;12.33;81.69;99756.22;2080992;28;20038;-71
2022/10/02 03:55:52;;;;;;;2.00;0.80;;;;;;;12.32;81.28;99753.84;2080347;28;20046;-71
2022/10/02 03:56:53;;;;;;;3.70;0.70;;;;;;;12.31;81.19;99757.63;2073867;28;20045;-72
2022/10/02 03:57:58;;;;;;;4.32;0.90;;;;;;;12.29;81.08;99761.44;2072088;28;20038;-70
2022/10/02 03:59:11;;;;;;;2.38;0.70;;;;;;;12.30;81.03;99759.53;2072927;28;20422;-70
2022/10/02 04:00:28;;;;;;;1.13;0.57;;;;;;;12.27;81.06;99768.25;2070623;28;20049;-69
2022/10/02 04:01:43;;;;;;;2.10;0.60;;;;;;;12.27;80.94;99758.25;2065972;28;20068;-69
2022/10/02 04:02:53;;;;;;;3.50;0.70;;;;;;;12.29;81.06;99764.16;2072327;28;20042;-70
2022/10/02 04:04:05;;;;;;;1.67;0.50;;;;;;;12.29;80.95;99766.84;2084340;28;20053;-70
2022/10/02 04:05:28;;;;;;;3.67;0.77;;;;;;;12.33;80.83;99768.91;2088510;28;20107;-69
2022/10/02 04:06:46;;;;;;;2.10;0.80;;;;;;;12.28;80.91;99765.22;2066863;28;20045;-70
2022/10/02 04:08:14;;;;;;;3.75;0.60;;;;;;;12.29;81.02;99753.38;2065947;28;20064;-70
2022/10/02 04:09:24;;;;;;;3.75;0.82;;;;;;;12.28;81.13;99764.44;2066479;28;20045;-70
2022/10/02 04:11:10;;;;;;;2.03;0.60;;;;;;;12.29;81.14;99764.16;2065124;28;20045;-70
2022/10/02 04:12:29;;;;;;;3.40;0.60;;;;;;;12.32;81.05;99757.31;2048082;28;20065;-70
2022/10/02 04:13:45;;;;;;;3.65;0.70;;;;;;;12.27;81.04;99760.94;2065240;28;20058;-70
2022/10/02 04:14:52;;;;;;;2.35;0.80;;;;;;;12.24;81.14;99758.09;2067220;28;20055;-70
2022/10/02 04:16:05;;;;;;;4.38;0.50;;;;;;;12.23;81.28;99756.47;2064441;28;20042;-71
2022/10/02 04:17:12;;;;;;;2.20;0.77;;;;;;;12.24;81.19;99758.88;2065376;28;20046;-70
2022/10/02 04:18:42;;;;;;;4.07;0.65;;;;;;;12.29;81.22;99757.94;2056706;28;20050;-70
2022/10/02 04:19:56;;;;;;;2.45;0.50;;;;;;;12.27;81.35;99752.06;2068226;28;20056;-70
2022/10/02 04:21:06;;;;;;;4.30;0.90;;;;;;;12.26;81.22;99753.16;2067887;28;20038;-71
2022/10/02 04:22:18;;;;;;;2.63;0.45;;;;;;;12.29;81.34;99750.66;2066491;28;20049;-70
2022/10/02 04:23:45;;;;;;;2.65;0.60;;;;;;;12.32;81.17;99757.31;2065415;28;20049;-70
2022/10/02 04:24:56;;;;;;;3.10;0.73;;;;;;;12.33;80.93;99752.75;2061510;28;20493;-70
2022/10/02 04:26:16;;;;;;;2.15;0.77;;;;;;;12.32;81.15;99760.00;2065744;28;20042;-69
2022/10/02 04:27:24;;;;;;;2.78;0.60;;;;;;;12.33;81.17;99760.84;2077641;28;20056;-69
2022/10/02 04:28:36;;;;;;;3.20;0.85;;;;;;;12.37;81.07;99767.19;2088308;28;20048;-70
2022/10/02 04:29:46;;;;;;;2.80;0.60;;;;;;;12.32;81.22;99762.72;2071207;28;20405;-70
2022/10/02 04:30:53;;;;;;;4.30;0.75;;;;;;;12.28;81.29;99762.53;2050057;28;20043;-71
2022/10/02 04:32:10;;;;;;;1.00;0.55;;;;;;;12.31;81.25;99763.03;2041269;28;20527;-70
2022/10/02 04:33:18;;;;;;;4.38;0.60;;;;;;;12.31;81.21;99760.34;2052635;28;20062;-71
2022/10/02 04:34:23;;;;;;;1.40;0.47;;;;;;;12.27;81.31;99769.03;2065166;28;20137;-71
2022/10/02 04:35:51;;;;;;;2.55;0.50;;;;;;;12.23;81.34;99762.69;2081092;28;20493;-71
2022/10/02 04:37:19;;;;;;;3.15;0.50;;;;;;;12.24;81.20;99771.56;2071239;28;20058;-71
2022/10/02 04:39:07;;;;;;;3.08;0.63;;;;;;;12.23;81.04;99768.06;2070763;28;20045;-69
2022/10/02 04:40:27;;;;;;;5.90;0.85;;;;;;;12.19;81.42;99767.09;2051921;28;20482;-70
2022/10/02 04:41:50;;;;;;;2.45;0.60;;;;;;;12.08;81.41;99771.16;2059020;28;20054;-70
2022/10/02 04:43:14;;;;;;;2.95;0.75;;;;;;;12.12;81.35;99782.09;2070266;28;20054;-70
2022/10/02 04:44:40;;;;;;;1.60;0.38;;;;;;;12.09;81.48;99770.03;2069901;28;20058;-70
2022/10/02 04:45:55;;;;;;;2.65;0.40;;;;;;;12.10;81.05;99765.44;2049634;28;20133;-70
2022/10/02 04:47:17;;;;;;;3.50;0.55;;;;;;;12.12;81.20;99782.91;2058917;28;20042;-69
2022/10/02 04:48:31;;;;;;;0.82;0.40;;;;;;;12.11;81.04;99775.94;2070637;28;20046;-69
2022/10/02 04:49:41;;;;;;;5.53;0.80;;;;;;;12.12;81.14;99777.50;2071951;28;20056;-70
2022/10/02 04:51:00;;;;;;;2.10;0.40;;;;;;;12.09;80.83;99783.50;2070474;28;20045;-70
2022/10/02 04:52:20;;;;;;;3.33;0.70;;;;;;;12.10;80.75;99779.69;2068291;28;20041;-70
2022/10/02 04:53:56;;;;;;;2.17;0.60;;;;;;;12.08;80.89;99775.75;2064391;28;20061;-70
2022/10/02 04:55:25;;;;;;;1.35;0.40;;;;;;;12.07;80.58;99777.63;2070676;28;20045;-69
2022/10/02 04:56:46;;;;;;;2.55;0.60;;;;;;;12.10;80.66;99774.31;2067347;28;20297;-69
2022/10/02 04:57:50;;;;;;;;;;;;;;;12.10;80.55;99774.31;2065414;28;20054;-70
2022/10/02 04:59:23;;;;;;;3.63;0.60;;;;;;;12.12;80.37;99771.31;2068477;28;19917;-70
2022/10/02 05:00:31;;;;;;;3.42;0.55;;;;;;;12.17;80.25;99769.31;2066851;28;20045;-70
2022/10/02 05:02:05;;;;;;;4.13;0.57;;;;;;;12.24;80.04;99780.44;2071725;28;20057;-69
2022/10/02 05:03:55;;;;;;;4.38;0.90;;;;;;;12.29;79.77;99774.94;2060403;28;20054;-70
2022/10/02 05:05:22;;;;;;;3.03;0.30;;;;;;;12.31;79.78;99779.19;2055623;28;20046;-70
2022/10/02 05:06:51;;;;;;;1.88;0.57;;;;;;;12.39;79.56;99781.13;2070606;28;20041;-69
2022/10/02 05:08:09;;;;;;;2.72;0.50;;;;;;;12.39;79.10;99781.94;2069805;28;20044;-69
2022/10/02 05:09:22;;;;;;;3.20;0.55;;;;;;;12.40;79.23;99780.06;2071202;28;20041;-69
2022/10/02 05:10:34;;;;;;;6.25;0.73;;;;;;;12.33;79.16;99785.09;2062375;28;20103;-69
2022/10/02 05:12:24;;;;;;;4.35;0.80;;;;;;;12.33;79.18;99787.78;2072265;28;20041;-71
2022/10/02 05:13:31;;;;;;;0.68;0.40;;;;;;;12.39;79.01;99795.44;2070420;28;20049;-70
2022/10/02 05:14:48;;;;;;;2.97;0.47;;;;;;;12.35;79.06;99793.66;2063870;28;20038;-70
2022/10/02 05:16:15;;;;;;;2.05;0.32;;;;;;;12.33;79.38;99795.88;2064693;28;20053;-70
2022/10/02 05:17:49;;;;;;;2.42;0.88;;;;;;;12.36;79.31;99792.53;2076713;28;20103;-70
2022/10/02 05:19:22;;;;;;;3.22;0.40;;;;;;;12.39;78.89;99798.13;2053241;28;20285;-70
2022/10/02 05:20:45;;;;;;;3.13;0.60;;;;;;;12.51;78.68;99803.75;2078572;28;20053;-69
2022/10/02 05:22:21;;;;;;;3.58;0.82;;;;;;;12.60;78.75;99802.97;2070413;28;20038;-70
2022/10/02 05:23:29;;;;;;;1.33;0.40;;;;;;;12.62;78.56;99801.56;2075467;28;20053;-69
2022/10/02 05:25:09;;;;;;;1.13;0.40;;;;;;;12.65;78.36;99803.66;2079201;28;20307;-71
2022/10/02 05:26:27;;;;;;;2.97;0.30;;;;;;;12.79;78.20;99797.34;2044288;29;20047;-69
2022/10/02 05:27:41;;;;;;;3.88;0.32;;;;;;;12.85;77.89;99804.19;2063426;28;20042;-69
2022/10/02 05:29:04;;;;;;;3.90;0.57;;;;;;;12.95;77.68;99801.22;2064168;28;20046;-69
2022/10/02 05:30:10;;;;;;;;;;;;;;;13.12;77.24;99803.97;2064378;28;20050;-70
2022/10/02 05:31:34;;;;;;;0.75;0.40;;;;;;;13.12;76.72;99803.97;2054802;28;19918;-69
2022/10/02 05:32:59;;;;;;;1.30;0.43;;;;;;;13.20;76.56;99805.88;2065135;28;20636;-70
2022/10/02 05:34:39;;;;;;;4.32;0.40;;;;;;;13.87;75.20;99807.44;2065549;28;20038;-69
2022/10/02 05:36:12;;;;;;;4.95;0.52;;;;;;;16.43;68.67;99804.31;2072162;28;20053;-69
2022/10/02 05:37:22;;;;;;;3.95;0.43;;;;;;;17.54;65.22;99794.25;2065258;28;20736;-69
2022/10/02 05:38:38;;;;;;;1.85;0.50;;;;;;;18.81;61.49;99804.66;2070962;28;20045;-70
2022/10/02 05:39:54;;;;;;;3.83;0.55;;;;;;;19.36;58.15;99806.34;2082432;28;20033;-69
2022/10/02 05:41:36;;;;;;;5.03;0.90;;;;;;;20.43;54.76;99806.91;2086834;28;20040;-70
2022/10/02 05:43:06;;;;;;;2.58;0.50;;;;;;;21.64;50.98;99813.53;2094935;28;20040;-69
2022/10/02 05:44:13;;;;;;;3.42;0.60;;;;;;;22.59;47.76;99810.28;2080168;28;20053;-69
2022/10/02 05:45:26;;;;;;;4.10;0.75;;;;;;;22.59;46.35;99810.28;2085026;28;20052;-69
2022/10/02 05:47:00;;;;;;;3.33;0.85;;;;;;;23.48;45.55;99823.88;2087240;28;20132;-71
2022/10/02 05:48:39;;;;;;;3.80;0.90;;;;;;;23.96;44.08;99820.19;2078186;28;20054;-72
2022/10/02 05:49:52;;;;;;;3.88;0.70;;;;;;;24.20;42.82;99819.47;2082825;28;20060;-71
2022/10/02 05:51:09;;;;;;;4.32;0.90;;;;;;;24.28;42.63;99823.06;2058111;28;20034;-71
2022/10/02 05:52:22;;;;;;;6.82;0.75;;;;;;;24.56;42.29;99818.78;2049728;28;20492;-72
2022/10/02 05:53:40;;;;;;;5.47;0.77;;;;;;;23.60;43.26;99820.81;2070657;28;20045;-71
2022/10/02 05:55:15;;;;;;;2.42;0.73;;;;;;;23.43;43.32;99817.97;2067899;28;20126;-71
2022/10/02 05:56:22;;;;;;;4.53;1.08;;;;;;;22.73;44.30;99823.34;2081072;28;20048;-72
2022/10/02 05:57:40;;;;;;;6.38;0.80;;;;;;;22.74;44.82;99819.41;2076356;28;20053;-71
2022/10/02 05:59:04;;;;;;;4.97;0.82;;;;;;;22.36;45.91;99824.16;2065137;28;20046;-72